Time;durP1;ratioP1;P1;durP2;ratioP2;P2;SDS_P1;SDS_P2;PMS_P1;PMS_P2;Temp;Humidity;BMP_temperature;BMP_pressure;BME280_temperature;BME280_humidity;BME280_pressure;Samples;Min_cycle;Max_cycle;Signal;HPM_P1;HPM_P2
2024/01/23 00:01:14;;;;;;;5.77;1.27;;;;;;;7.25;96.37;147986.19;4973808;28;20261;-68
2024/01/23 00:03:41;;;;;;;4.23;1.27;;;;;;;7.32;96.61;148003.59;4974901;28;20286;-67
2024/01/23 00:06:07;;;;;;;4.40;1.10;;;;;;;7.27;97.89;147989.94;4975216;28;20255;-67
2024/01/23 00:08:34;;;;;;;5.93;1.30;;;;;;;7.28;98.50;147993.66;4973981;28;20237;-67
2024/01/23 00:11:02;;;;;;;6.93;1.23;;;;;;;7.27;98.20;147989.94;4974666;28;20739;-67
2024/01/23 00:13:28;;;;;;;8.57;1.50;;;;;;;7.28;96.15;147992.44;4973671;28;20309;-67
2024/01/23 00:15:55;;;;;;;4.37;1.13;;;;;;;7.32;95.87;148003.59;4978461;28;20235;-67
2024/01/23 00:18:22;;;;;;;6.90;1.53;;;;;;;7.32;96.72;148003.59;4976241;28;20229;-67
2024/01/23 00:20:49;;;;;;;6.63;1.55;;;;;;;7.27;96.18;147989.94;4979106;28;20970;-67
2024/01/23 00:23:15;;;;;;;9.77;1.73;;;;;;;7.25;96.72;147986.19;4975230;28;20554;-67
2024/01/23 00:25:42;;;;;;;6.67;1.30;;;;;;;7.29;97.67;147996.13;4976693;28;20235;-67
2024/01/23 00:28:10;;;;;;;7.47;1.13;;;;;;;7.28;97.86;147993.66;4968492;28;20236;-67
2024/01/23 00:30:38;;;;;;;8.87;1.30;;;;;;;7.23;99.91;147981.22;4978738;28;20309;-67
2024/01/23 00:33:05;;;;;;;9.63;1.30;;;;;;;7.04;100.00;147935.28;4976161;28;20237;-68
2024/01/23 00:35:32;;;;;;;5.80;1.23;;;;;;;6.93;100.00;147910.41;4979060;28;20244;-68
2024/01/23 00:37:58;;;;;;;10.50;1.93;;;;;;;6.68;100.00;147849.56;4977415;28;20233;-68
2024/01/23 00:40:25;;;;;;;8.27;1.53;;;;;;;6.76;100.00;147869.44;4979658;28;20227;-68
2024/01/23 00:42:52;;;;;;;8.17;1.37;;;;;;;6.81;100.00;147879.38;4981700;28;20232;-68
2024/01/23 00:45:21;;;;;;;7.13;1.27;;;;;;;6.82;100.00;147883.09;4975118;28;20629;-67
2024/01/23 00:47:51;;;;;;;15.63;1.63;;;;;;;6.79;100.00;147875.63;4978205;28;20221;-68
2024/01/23 00:50:18;;;;;;;6.60;1.30;;;;;;;6.89;100.00;147899.25;4973175;28;20229;-68
2024/01/23 00:52:45;;;;;;;6.30;1.13;;;;;;;6.84;100.00;147888.06;4973525;28;20244;-68
2024/01/23 00:55:12;;;;;;;4.43;1.37;;;;;;;6.84;100.00;147888.06;4977136;28;20235;-68
2024/01/23 00:57:38;;;;;;;9.50;1.47;;;;;;;6.82;100.00;147881.88;4977089;28;20238;-67
2024/01/23 01:00:08;;;;;;;7.90;1.50;;;;;;;6.82;100.00;147883.09;4974490;28;20229;-67
2024/01/23 01:02:36;;;;;;;5.33;1.60;;;;;;;6.82;100.00;147881.88;4976985;28;20761;-67
2024/01/23 01:05:03;;;;;;;8.33;1.43;;;;;;;6.73;100.00;147860.72;4971567;28;20955;-67
2024/01/23 01:07:29;;;;;;;10.37;0.90;;;;;;;6.76;100.00;147869.44;4976918;28;20261;-67
2024/01/23 01:09:56;;;;;;;7.17;1.40;;;;;;;6.74;100.00;147863.19;4977957;28;20241;-67
2024/01/23 01:12:22;;;;;;;8.87;1.27;;;;;;;6.74;100.00;147863.19;4974079;28;20399;-67
2024/01/23 01:14:49;;;;;;;10.10;1.40;;;;;;;6.71;100.00;147857.03;4978566;28;20237;-67
2024/01/23 01:17:16;;;;;;;7.83;1.37;;;;;;;6.76;100.00;147869.44;4976205;28;20236;-67
2024/01/23 01:19:44;;;;;;;8.73;1.40;;;;;;;6.70;100.00;147854.53;4976856;28;20599;-67
2024/01/23 01:22:10;;;;;;;7.57;1.47;;;;;;;6.75;100.00;147866.97;4975062;28;20728;-67
2024/01/23 01:24:37;;;;;;;9.67;1.50;;;;;;;6.76;100.00;147869.44;4976425;28;20268;-67
2024/01/23 01:27:04;;;;;;;8.20;2.10;;;;;;;6.81;100.00;147880.59;4974305;28;20244;-67
2024/01/23 01:29:30;;;;;;;8.53;1.57;;;;;;;6.84;100.00;147888.06;4976614;28;20243;-67
2024/01/23 01:31:57;;;;;;;9.27;1.63;;;;;;;6.91;99.26;147905.44;4975705;28;20725;-67
2024/01/23 01:34:23;;;;;;;9.07;1.53;;;;;;;6.96;98.57;147915.38;4975836;28;20237;-67
2024/01/23 01:36:51;;;;;;;7.90;1.13;;;;;;;7.05;98.24;147937.75;4979532;28;20222;-67
2024/01/23 01:39:18;;;;;;;10.33;1.30;;;;;;;7.07;96.88;147942.72;4971602;28;20690;-67
2024/01/23 01:41:51;;;;;;;8.17;1.60;;;;;;;7.05;98.50;147937.75;4975585;28;20230;-67
2024/01/23 01:44:18;;;;;;;8.90;1.43;;;;;;;7.01;98.33;147927.81;4974569;28;20222;-67
2024/01/23 01:46:44;;;;;;;10.47;1.53;;;;;;;6.99;96.72;147924.06;4979943;28;20233;-67
2024/01/23 01:49:12;;;;;;;14.60;2.00;;;;;;;6.98;96.32;147921.56;4978903;28;20241;-68
2024/01/23 01:51:39;;;;;;;15.33;3.07;;;;;;;6.90;95.18;147902.97;4979719;28;20248;-66
2024/01/23 01:54:08;;;;;;;12.70;1.90;;;;;;;6.87;97.38;147894.28;4979854;28;20223;-66
2024/01/23 01:56:36;;;;;;;11.57;2.00;;;;;;;6.82;97.66;147883.09;4977229;28;20238;-66
2024/01/23 01:59:02;;;;;;;8.90;1.37;;;;;;;6.85;95.92;147890.53;4980634;28;20223;-66
2024/01/23 02:01:29;;;;;;;13.03;1.90;;;;;;;6.86;96.04;147891.81;4975171;28;20235;-67
2024/01/23 02:03:56;;;;;;;17.80;2.07;;;;;;;6.91;94.70;147904.19;4981792;28;20711;-66
2024/01/23 02:06:24;;;;;;;11.33;1.70;;;;;;;6.87;95.36;147895.50;4980598;28;20752;-67
2024/01/23 02:08:51;;;;;;;11.37;1.87;;;;;;;6.89;94.43;147899.25;4978869;28;20330;-66
2024/01/23 02:11:18;;;;;;;11.57;2.03;;;;;;;6.82;95.11;147883.09;4977058;28;20704;-66
2024/01/23 02:13:46;;;;;;;10.73;1.87;;;;;;;6.82;92.95;147883.09;4980578;28;20225;-66
2024/01/23 02:16:13;;;;;;;10.57;1.87;;;;;;;6.80;95.19;147878.13;4977554;28;20641;-67
2024/01/23 02:18:40;;;;;;;8.93;1.90;;;;;;;6.84;93.60;147886.84;4980269;28;20226;-67
2024/01/23 02:21:08;;;;;;;12.43;1.67;;;;;;;6.87;93.25;147895.50;4975119;28;20223;-67
2024/01/23 02:23:36;;;;;;;10.87;1.97;;;;;;;6.90;92.03;147902.97;4977063;28;20246;-67
2024/01/23 02:26:03;;;;;;;10.70;1.83;;;;;;;6.91;91.03;147905.44;4972800;28;20234;-67
2024/01/23 02:28:30;;;;;;;11.57;1.93;;;;;;;6.93;89.72;147910.41;4974029;28;20234;-67
2024/01/23 02:30:57;;;;;;;13.53;2.20;;;;;;;6.97;91.01;147917.88;4970505;28;20234;-67
2024/01/23 02:33:26;;;;;;;15.07;2.13;;;;;;;7.01;89.84;147927.81;4974864;28;20256;-66
2024/01/23 02:35:53;;;;;;;14.80;2.47;;;;;;;7.01;89.61;147927.81;4974924;28;20237;-66
2024/01/23 02:38:20;;;;;;;19.23;1.80;;;;;;;7.04;89.13;147936.47;4974096;28;20696;-67
2024/01/23 02:40:47;;;;;;;10.00;2.37;;;;;;;7.00;89.64;147926.53;4974489;28;20261;-67
2024/01/23 02:43:14;;;;;;;13.43;2.43;;;;;;;7.00;88.72;147926.53;4973046;28;20218;-67
2024/01/23 02:45:41;;;;;;;11.80;1.90;;;;;;;7.07;87.26;147943.94;4974629;28;20233;-67
2024/01/23 02:48:07;;;;;;;14.03;1.80;;;;;;;7.13;87.45;147957.63;4970183;28;20227;-67
2024/01/23 02:50:34;;;;;;;14.97;1.80;;;;;;;7.05;88.92;147937.75;4973126;28;20263;-67
2024/01/23 02:53:01;;;;;;;15.73;2.27;;;;;;;7.02;88.09;147930.28;4976040;28;20230;-68
2024/01/23 02:55:27;;;;;;;11.07;2.10;;;;;;;7.02;88.42;147931.50;4972645;28;20240;-67
2024/01/23 02:57:57;;;;;;;10.40;2.30;;;;;;;7.06;86.89;147940.25;4976140;28;20223;-67
2024/01/23 03:00:23;;;;;;;10.70;1.80;;;;;;;7.04;88.19;147936.47;4970250;28;20233;-67
2024/01/23 03:02:50;;;;;;;14.80;1.83;;;;;;;7.01;88.13;147927.81;4974505;28;20229;-67
2024/01/23 03:05:16;;;;;;;11.10;2.00;;;;;;;6.99;88.74;147922.84;4973132;28;20225;-67
2024/01/23 03:07:43;;;;;;;16.60;1.83;;;;;;;6.90;90.20;147902.97;4973294;28;20237;-67
2024/01/23 03:10:12;;;;;;;13.90;2.20;;;;;;;6.97;88.63;147919.09;4970698;28;20247;-67
2024/01/23 03:12:39;;;;;;;9.20;1.90;;;;;;;6.93;90.16;147909.16;4972817;28;20637;-67
2024/01/23 03:15:08;;;;;;;18.10;2.23;;;;;;;6.91;90.33;147905.44;4974792;28;20229;-67
2024/01/23 03:17:35;;;;;;;11.97;1.80;;;;;;;6.94;89.54;147911.63;4975455;28;20233;-67
2024/01/23 03:20:02;;;;;;;11.30;1.73;;;;;;;7.00;88.17;147926.53;4976035;28;20699;-67
2024/01/23 03:22:29;;;;;;;14.67;1.83;;;;;;;7.09;87.45;147947.69;4969480;28;20293;-67
2024/01/23 03:24:55;;;;;;;9.13;1.90;;;;;;;7.07;87.64;147943.94;4973944;28;20244;-67
2024/01/23 03:27:22;;;;;;;12.17;1.97;;;;;;;7.07;87.11;147942.72;4962145;28;20241;-67
2024/01/23 03:29:52;;;;;;;18.90;2.17;;;;;;;7.09;87.32;147948.91;4976690;28;20330;-67
2024/01/23 03:32:20;;;;;;;12.17;2.00;;;;;;;7.07;87.36;147942.72;4972676;28;20217;-67
2024/01/23 03:34:48;;;;;;;19.50;2.53;;;;;;;7.04;89.16;147936.47;4975665;28;20236;-67
2024/01/23 03:37:15;;;;;;;18.40;2.33;;;;;;;7.04;88.66;147936.47;4970680;28;20634;-67
2024/01/23 03:39:42;;;;;;;10.43;1.77;;;;;;;7.01;88.89;147929.03;4972649;28;20232;-67
2024/01/23 03:42:09;;;;;;;12.60;2.03;;;;;;;7.03;87.75;147932.78;4970123;28;20226;-67
2024/01/23 03:44:35;;;;;;;10.83;2.03;;;;;;;7.01;88.81;147929.03;4972313;28;20221;-67
2024/01/23 03:47:02;;;;;;;13.73;2.67;;;;;;;6.98;89.89;147921.56;4975203;28;20233;-67
2024/01/23 03:49:30;;;;;;;9.40;2.00;;;;;;;6.98;89.38;147921.56;4969219;28;20281;-67
2024/01/23 03:51:57;;;;;;;16.03;2.07;;;;;;;7.04;87.87;147935.28;4975679;28;20244;-67
2024/01/23 03:54:24;;;;;;;8.90;2.00;;;;;;;7.04;87.92;147936.47;4970158;28;20722;-67
2024/01/23 03:56:50;;;;;;;14.43;2.00;;;;;;;7.00;89.99;147926.53;4974834;28;20222;-67
2024/01/23 03:59:17;;;;;;;11.80;1.70;;;;;;;7.05;89.20;147937.75;4978834;28;20217;-67
2024/01/23 04:01:44;;;;;;;11.17;2.10;;;;;;;7.03;90.04;147932.78;4974297;28;20605;-67
2024/01/23 04:04:11;;;;;;;12.57;1.80;;;;;;;7.12;88.61;147955.16;4970383;28;20698;-67
2024/01/23 04:06:38;;;;;;;12.27;2.40;;;;;;;7.12;90.04;147953.88;4971773;28;20252;-67
2024/01/23 04:09:05;;;;;;;12.37;2.20;;;;;;;7.01;92.38;147927.81;4968904;28;20222;-67
2024/01/23 04:11:32;;;;;;;17.97;2.83;;;;;;;6.85;95.87;147889.31;4974947;28;20288;-67
2024/01/23 04:13:59;;;;;;;12.17;2.17;;;;;;;6.65;98.77;147842.09;4974949;28;20563;-67
2024/01/23 04:16:25;;;;;;;10.20;1.73;;;;;;;6.59;99.79;147827.19;4971363;28;20226;-67
2024/01/23 04:18:54;;;;;;;10.60;1.67;;;;;;;6.60;100.00;147830.91;4972279;28;20631;-67
2024/01/23 04:21:22;;;;;;;16.30;1.83;;;;;;;6.58;100.00;147824.72;4968546;28;20748;-67
2024/01/23 04:23:50;;;;;;;12.90;1.93;;;;;;;6.44;100.00;147791.16;4973142;28;20415;-67
2024/01/23 04:26:18;;;;;;;18.23;1.97;;;;;;;6.32;100.00;147763.88;4970862;28;20228;-67
2024/01/23 04:28:46;;;;;;;14.67;2.40;;;;;;;6.14;100.00;147720.38;4964834;28;20243;-67
2024/01/23 04:31:13;;;;;;;13.20;2.00;;;;;;;6.12;100.00;147715.41;5131271;23;20225;-67
2024/01/23 04:33:39;;;;;;;19.37;2.10;;;;;;;5.98;100.00;147680.59;4982270;28;20239;-67
2024/01/23 04:36:06;;;;;;;10.73;2.07;;;;;;;5.96;100.00;147676.91;4979872;28;20225;-67
2024/01/23 04:38:33;;;;;;;8.17;1.53;;;;;;;5.86;100.00;147652.06;4984332;28;20241;-67
2024/01/23 04:41:01;;;;;;;14.67;1.90;;;;;;;5.76;100.00;147628.50;4982821;28;20224;-67
2024/01/23 04:43:30;;;;;;;6.20;1.63;;;;;;;5.65;100.00;147602.41;4979584;28;20247;-67
2024/01/23 04:45:57;;;;;;;11.60;1.93;;;;;;;5.65;100.00;147601.19;4983922;28;20231;-68
2024/01/23 04:48:26;;;;;;;11.77;1.80;;;;;;;5.57;100.00;147582.56;4982012;28;20231;-68
2024/01/23 04:50:53;;;;;;;13.73;2.23;;;;;;;5.50;100.00;147566.44;4984199;28;20872;-68
2024/01/23 04:53:19;;;;;;;15.03;1.73;;;;;;;5.49;100.00;147563.97;4981452;28;20213;-68
2024/01/23 04:55:46;;;;;;;6.70;1.10;;;;;;;5.35;100.00;147530.44;4984509;28;20229;-68
2024/01/23 04:58:14;;;;;;;4.67;0.97;;;;;;;5.36;100.00;147532.91;4981445;28;20226;-68
2024/01/23 05:00:41;;;;;;;8.33;1.47;;;;;;;5.26;100.00;147509.34;4984782;28;20228;-68
2024/01/23 05:03:08;;;;;;;6.93;1.10;;;;;;;5.16;100.00;147485.78;4984265;28;20235;-68
2024/01/23 05:05:34;;;;;;;6.20;1.13;;;;;;;5.15;100.00;147482.06;4987748;28;20229;-67
2024/01/23 05:08:01;;;;;;;7.20;1.00;;;;;;;5.15;100.00;147483.31;4986729;28;20720;-68
2024/01/23 05:10:27;;;;;;;4.70;0.90;;;;;;;5.04;100.00;147456.00;4985110;28;20241;-67
2024/01/23 05:12:54;;;;;;;5.10;0.70;;;;;;;5.02;100.00;147451.06;4987756;28;20249;-67
2024/01/23 05:15:22;;;;;;;6.03;1.00;;;;;;;4.98;100.00;147441.13;4984296;28;20221;-67
2024/01/23 05:17:49;;;;;;;9.60;1.20;;;;;;;4.95;100.00;147433.69;4986923;28;21362;-67
2024/01/23 05:20:16;;;;;;;6.03;0.80;;;;;;;4.96;100.00;147436.16;4984585;28;20771;-67
2024/01/23 05:22:42;;;;;;;10.00;3.33;;;;;;;4.97;100.00;147439.84;4986305;28;20228;-67
2024/01/23 05:25:09;;;;;;;18.57;7.73;;;;;;;4.97;100.00;147439.84;4976274;28;20244;-67
2024/01/23 05:27:36;;;;;;;6.80;1.20;;;;;;;4.93;100.00;147428.72;4986769;28;20228;-67
2024/01/23 05:30:05;;;;;;;6.77;2.10;;;;;;;4.88;100.00;147417.53;4987382;28;20622;-67
2024/01/23 05:32:33;;;;;;;6.23;1.97;;;;;;;4.97;100.00;147438.63;4986755;28;20316;-67
2024/01/23 05:35:03;;;;;;;6.83;1.43;;;;;;;4.92;100.00;147427.44;4986505;28;20229;-67
2024/01/23 05:37:30;;;;;;;8.67;1.17;;;;;;;4.97;100.00;147438.63;4983439;28;20312;-67
2024/01/23 05:39:56;;;;;;;27.63;10.57;;;;;;;4.96;100.00;147437.38;4986690;28;20260;-68
2024/01/23 05:42:23;;;;;;;20.83;17.10;;;;;;;4.98;100.00;147442.34;4983966;28;20268;-68
2024/01/23 05:44:50;;;;;;;7.67;4.57;;;;;;;4.94;100.00;147432.41;4985773;28;20688;-68
2024/01/23 05:47:16;;;;;;;6.37;2.40;;;;;;;4.84;100.00;147408.88;4984278;28;20316;-68
2024/01/23 05:49:44;;;;;;;12.73;3.77;;;;;;;4.91;100.00;147424.97;4987108;28;20726;-68
2024/01/23 05:52:11;;;;;;;8.20;1.00;;;;;;;4.91;100.00;147424.97;4983915;28;20229;-68
2024/01/23 05:54:41;;;;;;;13.17;4.00;;;;;;;4.94;100.00;147432.41;4986714;28;20685;-68
2024/01/23 05:57:08;;;;;;;8.17;2.43;;;;;;;5.05;100.00;147458.50;4983701;28;20272;-68
2024/01/23 05:59:34;;;;;;;6.07;2.50;;;;;;;5.11;100.00;147472.13;4986487;28;20264;-68
2024/01/23 06:02:01;;;;;;;7.80;1.43;;;;;;;5.17;100.00;147487.00;4986411;28;20572;-68
2024/01/23 06:04:27;;;;;;;6.20;1.60;;;;;;;5.24;100.00;147504.38;4983328;28;20245;-67
2024/01/23 06:06:55;;;;;;;10.33;1.53;;;;;;;5.27;100.00;147511.84;4990582;28;20224;-67
2024/01/23 06:09:22;;;;;;;6.73;1.27;;;;;;;5.29;100.00;147516.78;4984413;28;20225;-67
2024/01/23 06:11:49;;;;;;;4.50;1.10;;;;;;;5.31;100.00;147520.50;4985655;28;20751;-67
2024/01/23 06:14:15;;;;;;;3.87;1.20;;;;;;;5.32;100.00;147524.25;4983199;28;20237;-67
2024/01/23 06:16:42;;;;;;;3.63;1.00;;;;;;;5.37;100.00;147535.38;4984497;28;20581;-67
2024/01/23 06:19:09;;;;;;;9.43;1.33;;;;;;;5.41;100.00;147545.31;4982858;28;20229;-67
2024/01/23 06:21:36;;;;;;;12.97;1.70;;;;;;;5.45;100.00;147554.03;4985273;28;20319;-67
2024/01/23 06:24:05;;;;;;;10.10;2.47;;;;;;;5.51;100.00;147568.94;4971960;28;20228;-67
2024/01/23 06:26:32;;;;;;;12.20;2.40;;;;;;;5.56;100.00;147581.34;4984465;28;20233;-67
2024/01/23 06:28:59;;;;;;;11.23;4.57;;;;;;;5.65;100.00;147602.41;4975336;28;20227;-67
2024/01/23 06:31:27;;;;;;;13.93;2.47;;;;;;;5.74;100.00;147623.53;4983269;28;20241;-67
2024/01/23 06:33:54;;;;;;;12.73;2.27;;;;;;;5.86;100.00;147652.06;4985775;28;20237;-67
2024/01/23 06:36:21;;;;;;;7.07;1.37;;;;;;;5.84;100.00;147648.31;4983046;28;20240;-67
2024/01/23 06:38:47;;;;;;;14.33;2.37;;;;;;;5.87;100.00;147655.78;4986229;28;20221;-67
2024/01/23 06:41:15;;;;;;;16.27;2.13;;;;;;;5.86;100.00;147652.06;4983144;28;20726;-67
2024/01/23 06:43:42;;;;;;;11.57;2.23;;;;;;;5.83;100.00;147645.84;4985665;28;20233;-67
2024/01/23 06:46:09;;;;;;;16.10;2.53;;;;;;;5.83;100.00;147644.63;4982102;28;20238;-67
2024/01/23 06:48:36;;;;;;;12.83;2.77;;;;;;;5.94;100.00;147671.94;4985739;28;20233;-67
2024/01/23 06:51:03;;;;;;;15.10;2.43;;;;;;;5.97;100.00;147679.38;4985461;28;20699;-67
2024/01/23 06:53:29;;;;;;;12.77;1.93;;;;;;;5.93;100.00;147669.44;4982988;28;20257;-67
2024/01/23 06:55:56;;;;;;;12.00;1.90;;;;;;;5.88;100.00;147658.25;4985894;28;20704;-67
2024/01/23 06:58:24;;;;;;;12.67;2.17;;;;;;;5.93;100.00;147669.44;4982960;28;20233;-67
2024/01/23 07:00:51;;;;;;;51.90;18.10;;;;;;;5.95;100.00;147673.16;4983838;28;20245;-67
2024/01/23 07:03:17;;;;;;;21.67;4.70;;;;;;;5.98;100.00;147681.88;4982516;28;20236;-67
2024/01/23 07:05:44;;;;;;;14.10;2.53;;;;;;;6.02;100.00;147691.84;4985932;28;20705;-67
2024/01/23 07:08:11;;;;;;;16.50;2.47;;;;;;;6.02;100.00;147691.84;4982870;28;20243;-66
2024/01/23 07:10:37;;;;;;;20.80;2.60;;;;;;;5.99;100.00;147683.09;5000253;28;20229;-66
2024/01/23 07:13:04;;;;;;;24.67;7.87;;;;;;;6.00;100.00;147686.88;4981586;28;20251;-66
2024/01/23 07:15:33;;;;;;;18.77;7.07;;;;;;;6.00;100.00;147686.88;4985312;28;20256;-66
2024/01/23 07:17:59;;;;;;;21.27;3.33;;;;;;;6.02;100.00;147691.84;4984991;28;20235;-66
2024/01/23 07:20:26;;;;;;;16.95;2.35;;;;;;;6.03;100.00;147694.34;4982325;28;20440;-66
2024/01/23 07:22:53;;;;;;;13.47;2.80;;;;;;;6.00;100.00;147685.56;4985273;28;20237;-66
2024/01/23 07:25:19;;;;;;;9.90;1.77;;;;;;;5.82;100.00;147643.41;4981804;28;20242;-66
2024/01/23 07:27:46;;;;;;;12.80;2.10;;;;;;;5.74;100.00;147624.75;4999949;28;20247;-66
2024/01/23 07:30:13;;;;;;;13.03;2.47;;;;;;;5.58;100.00;147586.31;4982344;28;20229;-66
2024/01/23 07:32:42;;;;;;;14.13;2.50;;;;;;;5.58;100.00;147585.03;4985002;28;20237;-66
2024/01/23 07:35:10;;;;;;;13.10;2.13;;;;;;;5.56;100.00;147580.06;4981519;28;20225;-66
2024/01/23 07:37:36;;;;;;;16.87;4.43;;;;;;;5.50;100.00;147566.44;5000081;28;20237;-66
2024/01/23 07:40:03;;;;;;;15.00;4.80;;;;;;;5.46;100.00;147557.72;4982345;28;20580;-66
2024/01/23 07:42:30;;;;;;;19.17;3.67;;;;;;;5.44;100.00;147552.75;4984972;28;20233;-66
2024/01/23 07:44:57;;;;;;;14.70;3.33;;;;;;;5.46;100.00;147556.50;4983623;28;20221;-66
2024/01/23 07:47:23;;;;;;;10.80;3.70;;;;;;;5.48;100.00;147561.47;4982111;28;20237;-66
2024/01/23 07:49:51;;;;;;;10.80;3.17;;;;;;;5.54;100.00;147575.09;4985280;28;20236;-66
2024/01/23 07:52:19;;;;;;;16.70;3.40;;;;;;;5.49;100.00;147562.69;4977768;28;20237;-66
2024/01/23 07:54:46;;;;;;;15.83;4.37;;;;;;;5.37;100.00;147535.38;4980510;28;20283;-66
2024/01/23 07:57:13;;;;;;;14.97;4.23;;;;;;;5.44;100.00;147552.75;4980274;28;20577;-66
2024/01/23 07:59:40;;;;;;;24.87;6.07;;;;;;;5.49;100.00;147562.69;4983825;28;20236;-66
2024/01/23 08:02:07;;;;;;;16.50;3.67;;;;;;;5.55;100.00;147578.84;4981096;28;20235;-66
2024/01/23 08:04:33;;;;;;;13.83;2.60;;;;;;;5.67;100.00;147606.16;4982819;28;20236;-66
2024/01/23 08:07:01;;;;;;;15.73;4.07;;;;;;;5.78;100.00;147633.47;4983060;28;20233;-66
2024/01/23 08:09:28;;;;;;;12.23;3.07;;;;;;;5.82;100.00;147643.41;4982234;28;20222;-66
2024/01/23 08:11:54;;;;;;;13.13;2.70;;;;;;;5.93;100.00;147669.44;4984751;28;20241;-66
2024/01/23 08:14:22;;;;;;;11.70;2.43;;;;;;;5.96;100.00;147676.91;4981627;28;20588;-66
2024/01/23 08:16:48;;;;;;;14.90;1.90;;;;;;;6.02;100.00;147691.84;4983705;28;20243;-66
2024/01/23 08:19:15;;;;;;;14.87;2.67;;;;;;;5.96;100.00;147676.91;4981724;28;20238;-66
2024/01/23 08:21:42;;;;;;;16.70;2.42;;;;;;;6.08;100.00;147704.28;4997899;28;20440;-66
2024/01/23 08:24:10;;;;;;;21.47;9.17;;;;;;;5.96;100.00;147676.91;4980976;28;20228;-66
2024/01/23 08:26:36;;;;;;;18.13;3.70;;;;;;;5.99;100.00;147683.09;4984615;28;20228;-67
2024/01/23 08:29:03;;;;;;;16.80;2.50;;;;;;;5.95;100.00;147673.16;4986178;28;20248;-67
2024/01/23 08:31:30;;;;;;;15.27;4.50;;;;;;;5.97;100.00;147678.13;4983778;28;20233;-66
2024/01/23 08:33:57;;;;;;;19.10;2.87;;;;;;;5.90;100.00;147662.00;4984698;28;20284;-66
2024/01/23 08:36:24;;;;;;;11.87;2.57;;;;;;;5.95;100.00;147673.16;4985046;28;20267;-67
2024/01/23 08:38:50;;;;;;;13.30;4.00;;;;;;;5.94;100.00;147671.94;4986197;28;20323;-67
2024/01/23 08:41:18;;;;;;;13.00;2.40;;;;;;;5.88;100.00;147658.25;4985287;28;20676;-67
2024/01/23 08:43:45;;;;;;;14.10;3.47;;;;;;;5.89;100.00;147659.53;4987977;28;20242;-67
2024/01/23 08:46:13;;;;;;;17.90;2.47;;;;;;;5.81;100.00;147639.66;4983983;28;20279;-67
2024/01/23 08:48:40;;;;;;;8.97;2.10;;;;;;;5.80;100.00;147637.19;4987850;28;20248;-64
2024/01/23 08:51:07;;;;;;;16.20;2.43;;;;;;;5.77;100.00;147631.00;4984618;28;20236;-65
2024/01/23 08:53:33;;;;;;;15.37;2.60;;;;;;;5.81;100.00;147639.66;4986157;28;21049;-65
2024/01/23 08:56:00;;;;;;;13.37;3.07;;;;;;;5.85;100.00;147650.81;4987467;28;20229;-65
2024/01/23 08:58:29;;;;;;;13.10;2.70;;;;;;;5.80;100.00;147637.19;4984765;28;20724;-65
2024/01/23 09:00:56;;;;;;;10.57;2.20;;;;;;;5.81;100.00;147640.94;5001845;28;20237;-65
2024/01/23 09:03:23;;;;;;;14.00;2.87;;;;;;;5.88;100.00;147657.03;4984886;28;20243;-65
2024/01/23 09:05:50;;;;;;;18.50;3.10;;;;;;;5.90;100.00;147663.22;4987818;28;20236;-67
2024/01/23 09:08:16;;;;;;;13.57;2.33;;;;;;;6.04;100.00;147695.56;4984397;28;20703;-65
2024/01/23 09:10:43;;;;;;;19.20;3.07;;;;;;;6.09;100.00;147707.97;4985875;28;20233;-64
2024/01/23 09:13:10;;;;;;;13.43;3.53;;;;;;;6.13;100.00;147716.69;4983821;28;20735;-65
2024/01/23 09:15:38;;;;;;;17.43;2.93;;;;;;;6.21;100.00;147736.56;4985870;28;20225;-66
2024/01/23 09:18:05;;;;;;;11.83;2.40;;;;;;;6.31;100.00;147760.13;4983561;28;20213;-66
2024/01/23 09:20:32;;;;;;;14.60;2.57;;;;;;;6.24;100.00;147742.75;5001338;28;20721;-66
2024/01/23 09:22:59;;;;;;;15.47;2.23;;;;;;;6.28;100.00;147753.94;4986292;28;20232;-67
2024/01/23 09:25:25;;;;;;;10.67;2.60;;;;;;;6.41;100.00;147783.72;4983291;28;20777;-66
2024/01/23 09:27:52;;;;;;;18.63;2.83;;;;;;;6.48;100.00;147801.09;4985738;28;20230;-67
2024/01/23 09:30:19;;;;;;;18.83;3.07;;;;;;;6.45;100.00;147793.63;4984284;28;20256;-67
2024/01/23 09:32:47;;;;;;;13.10;2.90;;;;;;;6.44;100.00;147792.44;5000189;28;20776;-66
2024/01/23 09:35:14;;;;;;;15.30;2.20;;;;;;;6.50;100.00;147806.06;4982698;28;20233;-67
2024/01/23 09:37:40;;;;;;;8.97;2.03;;;;;;;6.47;100.00;147798.59;4986987;28;20742;-66
2024/01/23 09:40:09;;;;;;;15.10;2.57;;;;;;;6.54;100.00;147814.78;4984027;28;20232;-67
2024/01/23 09:42:38;;;;;;;8.90;2.90;;;;;;;6.65;100.00;147843.31;4986522;28;20652;-67
2024/01/23 09:45:10;;;;;;;13.83;2.93;;;;;;;6.44;100.00;147791.16;4984035;28;20287;-67
2024/01/23 09:47:37;;;;;;;11.23;2.43;;;;;;;6.50;100.00;147806.06;4985601;28;20232;-67
2024/01/23 09:50:07;;;;;;;13.77;3.27;;;;;;;6.55;100.00;147818.47;4983202;28;20229;-68
2024/01/23 09:52:35;;;;;;;16.57;2.17;;;;;;;7.62;100.00;148074.41;4983619;28;20230;-61
2024/01/23 09:55:02;;;;;;;15.50;2.47;;;;;;;7.58;99.41;148064.47;4986305;28;20573;-60
2024/01/23 09:57:30;;;;;;;12.73;1.93;;;;;;;7.56;94.75;148060.78;4983592;28;20236;-69
2024/01/23 09:59:56;;;;;;;21.33;3.20;;;;;;;7.34;93.60;148008.56;5001240;28;20232;-69
2024/01/23 10:02:24;;;;;;;15.67;2.70;;;;;;;7.01;91.74;147927.81;4982329;28;20238;-67
2024/01/23 10:04:52;;;;;;;16.40;1.83;;;;;;;7.05;94.03;147937.75;4982375;28;20225;-67
2024/01/23 10:07:20;;;;;;;15.13;3.03;;;;;;;6.84;96.82;147888.06;4981940;28;20234;-67
2024/01/23 10:09:48;;;;;;;12.33;2.70;;;;;;;6.97;96.17;147917.88;5000279;28;20262;-67
2024/01/23 10:12:15;;;;;;;12.57;2.40;;;;;;;7.06;95.67;147940.25;4983199;28;20236;-66
2024/01/23 10:14:42;;;;;;;14.37;2.60;;;;;;;7.36;92.92;148013.53;4986096;28;20247;-64
2024/01/23 10:17:09;;;;;;;19.93;2.40;;;;;;;7.42;92.77;148027.19;4983890;28;20693;-64
2024/01/23 10:19:35;;;;;;;12.23;2.20;;;;;;;7.43;92.34;148028.44;4986362;28;20577;-66
2024/01/23 10:22:03;;;;;;;11.23;2.10;;;;;;;7.31;92.34;147999.88;4986191;28;20784;-66
2024/01/23 10:24:31;;;;;;;13.03;2.37;;;;;;;7.49;94.41;148044.59;4997698;28;20237;-66
2024/01/23 10:26:58;;;;;;;16.30;2.27;;;;;;;7.44;94.67;148032.16;4975254;28;20770;-66
2024/01/23 10:29:25;;;;;;;11.73;2.33;;;;;;;7.39;92.44;148019.78;4983503;28;20937;-66
2024/01/23 10:31:52;;;;;;;12.80;2.50;;;;;;;7.46;94.31;148035.91;4986455;28;20243;-65
2024/01/23 10:34:18;;;;;;;12.60;2.30;;;;;;;7.45;92.34;148033.41;4983505;28;20772;-67
2024/01/23 10:36:46;;;;;;;10.47;2.10;;;;;;;7.51;93.18;148048.34;4986259;28;20694;-66
2024/01/23 10:39:14;;;;;;;11.90;2.43;;;;;;;7.80;92.09;148119.16;4998299;28;20237;-67
2024/01/23 10:41:43;;;;;;;12.87;2.20;;;;;;;8.09;93.06;148187.53;4986003;28;20251;-66
2024/01/23 10:44:12;;;;;;;17.23;2.97;;;;;;;8.01;93.12;148167.63;4983220;28;20221;-67
2024/01/23 10:46:39;;;;;;;12.87;2.63;;;;;;;8.25;90.10;148227.34;4964850;28;20690;-64
2024/01/23 10:49:06;;;;;;;14.03;3.67;;;;;;;8.18;92.03;148209.91;4980867;28;20243;-67
2024/01/23 10:51:36;;;;;;;12.77;2.80;;;;;;;8.35;87.49;148250.97;4985587;28;20304;-67
2024/01/23 10:54:09;;;;;;;15.40;3.40;;;;;;;8.16;90.20;148203.72;4984154;28;20233;-67
2024/01/23 10:56:45;;;;;;;11.93;2.17;;;;;;;8.27;91.67;148231.09;4983712;28;20268;-66
2024/01/23 10:59:17;;;;;;;11.67;2.20;;;;;;;8.31;90.46;148241.03;4982685;28;20225;-67
2024/01/23 11:01:45;;;;;;;17.40;3.13;;;;;;;8.06;92.54;148180.06;4985336;28;20239;-65
2024/01/23 11:04:12;;;;;;;10.83;2.73;;;;;;;7.89;92.06;148139.06;4982702;28;20285;-65
2024/01/23 11:06:49;;;;;;;8.47;1.90;;;;;;;8.04;90.62;148176.38;4985407;28;20724;-64
2024/01/23 11:09:22;;;;;;;13.43;2.30;;;;;;;7.97;91.44;148158.97;4980744;28;20253;-67
2024/01/23 11:12:03;;;;;;;18.27;2.60;;;;;;;7.86;91.68;148131.59;4980270;28;20241;-67
2024/01/23 11:14:41;;;;;;;13.17;2.53;;;;;;;8.03;89.92;148173.88;4980548;28;20225;-67
2024/01/23 11:17:11;;;;;;;10.90;1.90;;;;;;;8.21;87.35;148217.38;4973326;28;20227;-66
2024/01/23 11:19:41;;;;;;;15.77;2.67;;;;;;;8.11;87.86;148193.78;4975087;28;20661;-66
2024/01/23 11:22:08;;;;;;;12.60;3.70;;;;;;;8.25;88.95;148227.34;4982423;28;20583;-66